Time;durP1;ratioP1;P1;durP2;ratioP2;P2;SDS_P1;SDS_P2;PMS_P1;PMS_P2;Temp;Humidity;BMP_temperature;BMP_pressure;BME280_temperature;BME280_humidity;BME280_pressure;Samples;Min_cycle;Max_cycle;Signal;HPM_P1;HPM_P2
2020/12/30 00:01:00;;;;;;;;;;;3.00;99.90;;;;;;5081707;28;19915;-86
2020/12/30 00:03:25;;;;;;;;;;;3.00;99.90;;;;;;5082622;28;19912;-86
2020/12/30 00:05:51;;;;;;;;;;;3.00;99.90;;;;;;5081251;28;20006;-86
2020/12/30 00:08:16;;;;;;;;;;;3.10;99.90;;;;;;5079915;28;19915;-86
2020/12/30 00:10:42;;;;;;;;;;;3.10;99.90;;;;;;5076856;28;20327;-87
2020/12/30 00:13:08;;;;;;;;;;;3.00;99.90;;;;;;5071009;28;19912;-87
2020/12/30 00:15:34;;;;;;;;;;;3.00;99.90;;;;;;5071153;28;19908;-87
2020/12/30 00:18:01;;;;;;;;;;;3.00;99.90;;;;;;5070776;28;19916;-87
2020/12/30 00:20:29;;;;;;;;;;;2.90;99.90;;;;;;5070968;28;19909;-87
2020/12/30 00:22:55;;;;;;;;;;;3.00;99.90;;;;;;5082128;28;20276;-87
2020/12/30 00:25:20;;;;;;;;;;;3.00;99.90;;;;;;5080984;28;19958;-87
2020/12/30 00:27:46;;;;;;;;;;;3.00;99.90;;;;;;5081524;28;19953;-87
2020/12/30 00:30:20;;;;;;;;;;;3.00;99.90;;;;;;5078041;28;19920;-86
2020/12/30 00:32:46;;;;;;;;;;;3.10;99.90;;;;;;5071968;28;19908;-87
2020/12/30 00:35:13;;;;;;;;;;;3.10;99.90;;;;;;5089511;28;19913;-87
2020/12/30 00:37:38;;;;;;;;;;;3.00;99.90;;;;;;5070841;28;19965;-86
2020/12/30 00:40:04;;;;;;;;;;;3.00;99.90;;;;;;5070884;28;19913;-86
2020/12/30 00:42:33;;;;;;;;;;;3.00;99.90;;;;;;5087432;28;19912;-87
2020/12/30 00:44:59;;;;;;;;;;;3.00;99.90;;;;;;5087615;28;19928;-87
2020/12/30 00:47:27;;;;;;;;;;;3.00;99.90;;;;;;5087427;28;19984;-87
2020/12/30 00:49:53;;;;;;;;;;;3.10;99.90;;;;;;5087388;28;19948;-87
2020/12/30 00:52:21;;;;;;;;;;;3.10;99.90;;;;;;5071393;28;19912;-87
2020/12/30 00:54:46;;;;;;;;;;;3.10;99.90;;;;;;5070712;28;19920;-87
2020/12/30 00:57:12;;;;;;;;;;;3.10;99.90;;;;;;5070174;28;20348;-87
2020/12/30 00:59:40;;;;;;;;;;;3.10;99.90;;;;;;5070276;28;20011;-87
2020/12/30 01:02:06;;;;;;;;;;;3.10;99.90;;;;;;5087455;28;19991;-88
2020/12/30 01:04:34;;;;;;;;;;;3.10;99.90;;;;;;5071123;28;19958;-87
2020/12/30 01:07:04;;;;;;;;;;;3.20;99.90;;;;;;5071653;28;19908;-87
2020/12/30 01:09:30;;;;;;;;;;;3.30;99.90;;;;;;5071615;28;19912;-86
2020/12/30 01:11:59;;;;;;;;;;;3.30;99.90;;;;;;5070405;28;19987;-87
2020/12/30 01:14:27;;;;;;;;;;;3.40;99.90;;;;;;5087467;28;19928;-87
2020/12/30 01:16:53;;;;;;;;;;;3.30;99.90;;;;;;5070536;28;20283;-87
2020/12/30 01:19:19;;;;;;;;;;;3.30;99.90;;;;;;5072546;28;19913;-87
2020/12/30 01:21:45;;;;;;;;;;;3.20;99.90;;;;;;5073207;28;19913;-87
2020/12/30 01:24:11;;;;;;;;;;;3.20;99.90;;;;;;5090735;28;19913;-86
2020/12/30 01:26:36;;;;;;;;;;;3.20;99.90;;;;;;5091859;28;19917;-87
2020/12/30 01:29:03;;;;;;;;;;;3.30;99.90;;;;;;5091016;28;19908;-87
2020/12/30 01:31:29;;;;;;;;;;;3.30;99.90;;;;;;5090807;28;20303;-87
2020/12/30 01:33:55;;;;;;;;;;;3.30;99.90;;;;;;5090598;28;19908;-86
2020/12/30 01:36:20;;;;;;;;;;;3.40;99.90;;;;;;5073459;28;19909;-87
2020/12/30 01:38:46;;;;;;;;;;;3.30;99.90;;;;;;5073579;28;19999;-87
2020/12/30 01:41:12;;;;;;;;;;;3.30;99.90;;;;;;5090530;28;19912;-88
2020/12/30 01:43:40;;;;;;;;;;;3.30;99.90;;;;;;5073673;28;19913;-87
2020/12/30 01:46:05;;;;;;;;;;;3.30;99.90;;;;;;5075195;28;19971;-86
2020/12/30 01:48:34;;;;;;;;;;;3.30;99.90;;;;;;5073540;28;19958;-87
2020/12/30 01:51:00;;;;;;;;;;;3.30;99.90;;;;;;5075034;28;20397;-87
2020/12/30 01:53:25;;;;;;;;;;;3.40;99.90;;;;;;5072798;28;19924;-87
2020/12/30 01:55:54;;;;;;;;;;;3.40;99.90;;;;;;5090371;28;20351;-87
2020/12/30 01:58:20;;;;;;;;;;;3.40;99.90;;;;;;5073409;28;19913;-87
2020/12/30 02:00:52;;;;;;;;;;;3.40;99.90;;;;;;5073008;28;20050;-87
2020/12/30 02:03:18;;;;;;;;;;;3.40;99.90;;;;;;5089971;28;19962;-87
2020/12/30 02:05:43;;;;;;;;;;;3.40;99.90;;;;;;5089785;28;20003;-87
2020/12/30 02:08:09;;;;;;;;;;;3.40;99.90;;;;;;5074095;28;19919;-87
2020/12/30 02:10:38;;;;;;;;;;;3.40;99.90;;;;;;5090053;28;20321;-86
2020/12/30 02:13:03;;;;;;;;;;;3.40;99.90;;;;;;5073226;28;20004;-87
2020/12/30 02:15:33;;;;;;;;;;;3.40;99.90;;;;;;5073259;28;19955;-87
2020/12/30 02:17:59;;;;;;;;;;;3.50;99.90;;;;;;5072929;28;19909;-86
2020/12/30 02:20:25;;;;;;;;;;;3.50;99.90;;;;;;5072748;28;19915;-86
2020/12/30 02:22:56;;;;;;;;;;;3.40;99.90;;;;;;5089890;28;19912;-87
2020/12/30 02:25:22;;;;;;;;;;;3.40;99.90;;;;;;5072773;28;19942;-87
2020/12/30 02:27:50;;;;;;;;;;;3.30;99.90;;;;;;5072772;28;19909;-87
2020/12/30 02:30:17;;;;;;;;;;;3.40;99.90;;;;;;5073880;28;19914;-87
2020/12/30 02:32:42;;;;;;;;;;;3.40;99.90;;;;;;5088969;28;19915;-86
2020/12/30 02:35:07;;;;;;;;;;;3.30;99.90;;;;;;5072570;28;20047;-86
2020/12/30 02:37:35;;;;;;;;;;;3.30;99.90;;;;;;5073177;28;19957;-87
2020/12/30 02:40:04;;;;;;;;;;;3.30;99.90;;;;;;5089330;28;19916;-87
2020/12/30 02:42:31;;;;;;;;;;;3.20;99.90;;;;;;5089230;28;19912;-86
2020/12/30 02:45:07;;;;;;;;;;;3.30;99.90;;;;;;5073674;28;20011;-87
2020/12/30 02:47:33;;;;;;;;;;;3.20;99.90;;;;;;5089276;28;19908;-86
2020/12/30 02:49:59;;;;;;;;;;;3.20;99.90;;;;;;5089597;28;19939;-87
2020/12/30 02:52:25;;;;;;;;;;;3.20;99.90;;;;;;5072469;28;19913;-86
2020/12/30 02:54:51;;;;;;;;;;;3.20;99.90;;;;;;5059815;28;19921;-87
2020/12/30 02:57:16;;;;;;;;;;;3.20;99.90;;;;;;5074209;28;19913;-87
2020/12/30 02:59:42;;;;;;;;;;;3.20;99.90;;;;;;5055413;28;19915;-86
2020/12/30 03:02:07;;;;;;;;;;;3.20;99.90;;;;;;5055863;28;19920;-87
2020/12/30 03:04:33;;;;;;;;;;;3.20;99.90;;;;;;5056032;28;19912;-86
2020/12/30 03:07:01;;;;;;;;;;;3.20;99.90;;;;;;5055349;28;20383;-87
2020/12/30 03:09:29;;;;;;;;;;;3.20;99.90;;;;;;5071666;28;19908;-86
2020/12/30 03:11:55;;;;;;;;;;;3.20;99.90;;;;;;5055135;28;20383;-87
2020/12/30 03:14:20;;;;;;;;;;;3.20;99.90;;;;;;5055087;28;19909;-87
2020/12/30 03:16:46;;;;;;;;;;;3.20;99.90;;;;;;5054948;28;19951;-87
2020/12/30 03:19:12;;;;;;;;;;;3.30;99.90;;;;;;5072196;28;20009;-87
2020/12/30 03:21:37;;;;;;;;;;;3.30;99.90;;;;;;5055587;28;19919;-86
2020/12/30 03:24:03;;;;;;;;;;;3.30;99.90;;;;;;5055241;28;20167;-86
2020/12/30 03:26:32;;;;;;;;;;;3.30;99.90;;;;;;5055352;28;19918;-87
2020/12/30 03:29:01;;;;;;;;;;;3.30;99.90;;;;;;5071686;28;19909;-87
2020/12/30 03:31:29;;;;;;;;;;;3.30;99.90;;;;;;5071702;28;19935;-87
2020/12/30 03:33:55;;;;;;;;;;;3.30;99.90;;;;;;5071785;28;19936;-87
2020/12/30 03:36:21;;;;;;;;;;;3.30;99.90;;;;;;5071401;28;19931;-87
2020/12/30 03:38:47;;;;;;;;;;;3.30;99.90;;;;;;5054693;28;20344;-87
2020/12/30 03:41:12;;;;;;;;;;;3.30;99.90;;;;;;5054978;28;19990;-87
2020/12/30 03:43:40;;;;;;;;;;;3.30;99.90;;;;;;5054249;28;20023;-87
2020/12/30 03:46:06;;;;;;;;;;;3.30;99.90;;;;;;5073542;28;19916;-87
2020/12/30 03:48:34;;;;;;;;;;;3.20;99.90;;;;;;5057282;28;19909;-87
2020/12/30 03:50:59;;;;;;;;;;;3.20;99.90;;;;;;5055991;28;19908;-87
2020/12/30 03:53:25;;;;;;;;;;;3.20;99.90;;;;;;5055331;28;19916;-87
2020/12/30 03:55:53;;;;;;;;;;;3.20;99.90;;;;;;5055021;28;19916;-87
2020/12/30 03:58:19;;;;;;;;;;;3.10;99.90;;;;;;5054263;28;19920;-86
2020/12/30 04:00:49;;;;;;;;;;;3.10;99.90;;;;;;5071426;28;19913;-87
2020/12/30 04:03:19;;;;;;;;;;;3.10;99.90;;;;;;5053859;28;21036;-87
2020/12/30 04:05:46;;;;;;;;;;;3.10;99.90;;;;;;5054441;28;19908;-86
2020/12/30 04:08:14;;;;;;;;;;;3.10;99.90;;;;;;5054367;28;19954;-87
2020/12/30 04:10:45;;;;;;;;;;;3.00;99.90;;;;;;5053908;28;20171;-87
2020/12/30 04:13:10;;;;;;;;;;;3.00;99.90;;;;;;5054531;28;20000;-87
2020/12/30 04:15:41;;;;;;;;;;;2.90;99.90;;;;;;5054376;28;19955;-86
2020/12/30 04:18:06;;;;;;;;;;;2.90;99.90;;;;;;5071147;28;20278;-86
2020/12/30 04:20:32;;;;;;;;;;;2.90;99.90;;;;;;5054081;28;20003;-86
2020/12/30 04:22:57;;;;;;;;;;;2.80;99.90;;;;;;5054686;28;19916;-87
2020/12/30 04:25:23;;;;;;;;;;;2.80;99.90;;;;;;5054031;28;20330;-86
2020/12/30 04:27:48;;;;;;;;;;;2.70;99.90;;;;;;5054777;28;19909;-87
2020/12/30 04:30:14;;;;;;;;;;;2.70;99.90;;;;;;5054391;28;19909;-86
2020/12/30 04:32:39;;;;;;;;;;;2.70;99.90;;;;;;5054219;28;20046;-87
2020/12/30 04:35:05;;;;;;;;;;;2.70;99.90;;;;;;5054113;28;20063;-86
2020/12/30 04:37:33;;;;;;;;;;;2.70;99.90;;;;;;5070870;28;20405;-87
2020/12/30 04:39:59;;;;;;;;;;;2.70;99.90;;;;;;5070595;28;19919;-86
2020/12/30 04:42:31;;;;;;;;;;;2.70;99.90;;;;;;5054574;28;20002;-86
2020/12/30 04:44:58;;;;;;;;;;;2.70;99.90;;;;;;5070700;28;19916;-87
2020/12/30 04:47:25;;;;;;;;;;;2.70;99.90;;;;;;5071001;28;19962;-86
2020/12/30 04:49:51;;;;;;;;;;;2.70;99.90;;;;;;5070623;28;19909;-87
2020/12/30 04:54:52;;;;;;;;;;;2.70;99.90;;;;;;5130206;22;19981;-89
2020/12/30 04:57:37;;;;;;;;;;;2.70;99.90;;;;;;5098291;28;19912;-89
2020/12/30 05:00:05;;;;;;;;;;;2.60;99.90;;;;;;5116322;28;19912;-88
2020/12/30 05:02:34;;;;;;;;;;;2.60;99.90;;;;;;5098087;28;20012;-88
2020/12/30 05:05:00;;;;;;;;;;;2.50;99.90;;;;;;5098361;28;19916;-89
2020/12/30 05:07:29;;;;;;;;;;;2.50;99.90;;;;;;5098190;28;19953;-90
2020/12/30 05:09:56;;;;;;;;;;;2.40;99.90;;;;;;5098036;28;19907;-88
2020/12/30 05:12:21;;;;;;;;;;;2.40;99.90;;;;;;5098058;28;20362;-88
2020/12/30 05:14:50;;;;;;;;;;;2.40;99.90;;;;;;5098053;28;19915;-90
2020/12/30 05:17:16;;;;;;;;;;;2.40;99.90;;;;;;5097962;28;19978;-88
2020/12/30 05:19:43;;;;;;;;;;;2.40;99.90;;;;;;5097448;28;19956;-90
2020/12/30 05:22:14;;;;;;;;;;;2.40;99.90;;;;;;5097804;28;19912;-90
2020/12/30 05:24:39;;;;;;;;;;;2.40;99.90;;;;;;5097683;28;19916;-89
2020/12/30 05:27:07;;;;;;;;;;;2.40;99.90;;;;;;5097495;28;19938;-89
2020/12/30 05:29:33;;;;;;;;;;;2.40;99.90;;;;;;5097266;28;19907;-89
2020/12/30 05:31:58;;;;;;;;;;;2.40;99.90;;;;;;5097671;28;19918;-88
2020/12/30 05:34:24;;;;;;;;;;;2.40;99.90;;;;;;5115835;28;19912;-91
2020/12/30 05:36:50;;;;;;;;;;;2.40;99.90;;;;;;5097665;28;19961;-90
2020/12/30 05:39:28;;;;;;;;;;;2.40;99.90;;;;;;5097660;28;19947;-89
2020/12/30 05:42:12;;;;;;;;;;;2.40;99.90;;;;;;5097686;28;19912;-89
2020/12/30 05:44:40;;;;;;;;;;;2.40;99.90;;;;;;5097705;28;19912;-90
2020/12/30 05:47:24;;;;;;;;;;;2.30;99.90;;;;;;5097623;28;20365;-88
2020/12/30 05:49:53;;;;;;;;;;;2.30;99.90;;;;;;5097577;28;19912;-90
2020/12/30 05:52:19;;;;;;;;;;;2.40;99.90;;;;;;5097579;28;19908;-87
2020/12/30 05:54:50;;;;;;;;;;;2.30;99.90;;;;;;5097384;28;20426;-90
2020/12/30 05:57:22;;;;;;;;;;;2.30;99.90;;;;;;5115824;28;19914;-91
2020/12/30 05:59:52;;;;;;;;;;;2.30;99.90;;;;;;5097700;28;19998;-89
2020/12/30 06:02:28;;;;;;;;;;;2.30;99.90;;;;;;5097235;28;19911;-89
2020/12/30 06:04:54;;;;;;;;;;;2.20;99.90;;;;;;5097690;28;19974;-92
2020/12/30 06:07:22;;;;;;;;;;;2.20;99.90;;;;;;5096743;28;19951;-92
2020/12/30 06:09:52;;;;;;;;;;;2.20;99.90;;;;;;5097296;28;20113;-92
2020/12/30 06:12:27;;;;;;;;;;;2.20;99.90;;;;;;5097725;28;19957;-90
2020/12/30 06:14:53;;;;;;;;;;;2.20;99.90;;;;;;5097514;28;19998;-90
2020/12/30 06:17:44;;;;;;;;;;;2.30;99.90;;;;;;5097749;28;20020;-91
2020/12/30 06:20:10;;;;;;;;;;;2.30;99.90;;;;;;5097625;28;19923;-89
2020/12/30 06:22:37;;;;;;;;;;;2.30;99.90;;;;;;5096978;28;19911;-87
2020/12/30 06:25:02;;;;;;;;;;;2.30;99.90;;;;;;5097199;28;20255;-89
2020/12/30 06:27:28;;;;;;;;;;;2.30;99.90;;;;;;5097515;28;19908;-90
2020/12/30 06:29:57;;;;;;;;;;;2.30;99.90;;;;;;5097172;28;20301;-89
2020/12/30 06:32:33;;;;;;;;;;;2.30;99.90;;;;;;5115056;28;19914;-90
2020/12/30 06:35:02;;;;;;;;;;;2.30;99.90;;;;;;5097266;28;20166;-89
2020/12/30 06:37:28;;;;;;;;;;;2.30;99.90;;;;;;5097306;28;19911;-89
2020/12/30 06:40:13;;;;;;;;;;;2.30;99.90;;;;;;5097287;28;19908;-89
2020/12/30 06:42:38;;;;;;;;;;;2.30;99.90;;;;;;5097431;28;19912;-89
2020/12/30 06:45:06;;;;;;;;;;;2.30;99.90;;;;;;5097501;28;20265;-90
2020/12/30 06:47:53;;;;;;;;;;;2.30;99.90;;;;;;5096920;28;19911;-89
2020/12/30 06:50:21;;;;;;;;;;;2.20;99.90;;;;;;5097042;28;20023;-89
2020/12/30 06:52:46;;;;;;;;;;;2.20;99.90;;;;;;5096747;28;19908;-91
2020/12/30 06:55:12;;;;;;;;;;;2.10;99.90;;;;;;5114809;28;20002;-88
2020/12/30 06:57:40;;;;;;;;;;;2.10;99.90;;;;;;5096536;28;19994;-89
2020/12/30 07:00:27;;;;;;;;;;;2.10;99.90;;;;;;5115081;28;19908;-88
2020/12/30 07:03:12;;;;;;;;;;;2.10;99.90;;;;;;5096515;28;20345;-90
2020/12/30 07:05:40;;;;;;;;;;;2.00;99.90;;;;;;5096336;28;20010;-88
2020/12/30 07:08:06;;;;;;;;;;;1.90;99.90;;;;;;5096471;28;20000;-88
2020/12/30 07:10:38;;;;;;;;;;;1.90;99.90;;;;;;5096864;28;20342;-90
2020/12/30 07:13:04;;;;;;;;;;;1.90;99.90;;;;;;5096638;28;19914;-88
2020/12/30 07:15:29;;;;;;;;;;;1.90;99.90;;;;;;5114921;28;19912;-88
2020/12/30 07:17:55;;;;;;;;;;;1.90;99.90;;;;;;5095711;28;19908;-89
2020/12/30 07:20:24;;;;;;;;;;;1.90;99.90;;;;;;5096768;28;20010;-89
2020/12/30 07:22:49;;;;;;;;;;;1.90;99.90;;;;;;5096410;28;20378;-91
2020/12/30 07:25:15;;;;;;;;;;;2.00;99.90;;;;;;5096478;28;19958;-90
2020/12/30 07:27:44;;;;;;;;;;;2.00;99.90;;;;;;5096701;28;19961;-90
2020/12/30 07:30:12;;;;;;;;;;;2.00;99.90;;;;;;5096668;28;19919;-91
2020/12/30 07:32:41;;;;;;;;;;;2.00;99.90;;;;;;5096900;28;19947;-90
2020/12/30 07:35:09;;;;;;;;;;;2.10;99.90;;;;;;5097166;28;20002;-89
2020/12/30 07:37:36;;;;;;;;;;;2.20;99.90;;;;;;5097152;28;19908;-89
2020/12/30 07:40:02;;;;;;;;;;;2.20;99.90;;;;;;5228153;22;20015;-87
2020/12/30 07:42:27;;;;;;;;;;;2.30;99.90;;;;;;5095230;28;20370;-86
2020/12/30 07:44:54;;;;;;;;;;;2.30;99.90;;;;;;5094690;28;19912;-86
2020/12/30 07:47:20;;;;;;;;;;;2.30;99.90;;;;;;5094883;28;20302;-87
2020/12/30 07:49:48;;;;;;;;;;;2.30;99.90;;;;;;5094834;28;19912;-86
2020/12/30 07:52:14;;;;;;;;;;;2.30;99.90;;;;;;5094687;28;19931;-86
2020/12/30 07:54:40;;;;;;;;;;;2.30;99.90;;;;;;5094557;28;19939;-86
2020/12/30 07:57:13;;;;;;;;;;;2.30;99.90;;;;;;5094808;28;19911;-87
2020/12/30 07:59:41;;;;;;;;;;;2.30;99.90;;;;;;5094919;28;20355;-87
2020/12/30 08:02:10;;;;;;;;;;;2.40;99.90;;;;;;5112584;28;19911;-87
2020/12/30 08:04:36;;;;;;;;;;;2.40;99.90;;;;;;5094693;28;19918;-86
2020/12/30 08:07:02;;;;;;;;;;;2.40;99.90;;;;;;5094701;28;19908;-87
2020/12/30 08:09:29;;;;;;;;;;;2.40;99.90;;;;;;5088662;28;19908;-87
2020/12/30 08:11:58;;;;;;;;;;;2.40;99.90;;;;;;5082932;28;19912;-88
2020/12/30 08:14:26;;;;;;;;;;;2.50;99.90;;;;;;5082951;28;19915;-87
2020/12/30 08:17:06;;;;;;;;;;;2.60;99.90;;;;;;5084756;28;19907;-87
2020/12/30 08:19:34;;;;;;;;;;;2.70;99.90;;;;;;5103230;28;20354;-87
2020/12/30 08:22:22;;;;;;;;;;;2.70;99.90;;;;;;5104368;28;19918;-87
2020/12/30 08:24:51;;;;;;;;;;;2.70;99.90;;;;;;5064675;28;19938;-87
2020/12/30 08:27:23;;;;;;;;;;;2.70;99.90;;;;;;5085201;28;19919;-87
2020/12/30 08:29:51;;;;;;;;;;;2.70;99.90;;;;;;5091141;28;19909;-87
2020/12/30 08:32:16;;;;;;;;;;;2.70;99.90;;;;;;5092216;28;20393;-87
2020/12/30 08:34:45;;;;;;;;;;;2.70;99.90;;;;;;5084389;28;19915;-87
2020/12/30 08:37:14;;;;;;;;;;;2.90;99.90;;;;;;5088523;28;19916;-87
2020/12/30 08:39:42;;;;;;;;;;;2.90;99.90;;;;;;5081126;28;20355;-87
2020/12/30 08:42:14;;;;;;;;;;;2.90;99.90;;;;;;5080933;28;19919;-87
2020/12/30 08:44:44;;;;;;;;;;;2.90;99.90;;;;;;5084319;28;19915;-87
2020/12/30 08:47:13;;;;;;;;;;;2.90;99.90;;;;;;5087742;28;20102;-87
2020/12/30 08:49:41;;;;;;;;;;;2.90;99.90;;;;;;5088233;28;19908;-87
2020/12/30 08:52:16;;;;;;;;;;;3.00;99.90;;;;;;5088077;28;20038;-87
2020/12/30 08:54:44;;;;;;;;;;;3.00;99.90;;;;;;5080572;28;19919;-88
2020/12/30 08:57:10;;;;;;;;;;;3.00;99.90;;;;;;5082848;28;19907;-86
2020/12/30 08:59:35;;;;;;;;;;;3.00;99.90;;;;;;5080612;28;20355;-87
2020/12/30 09:02:13;;;;;;;;;;;3.10;99.90;;;;;;5086833;28;19920;-87
2020/12/30 09:04:54;;;;;;;;;;;3.10;99.90;;;;;;5090184;28;19994;-87
2020/12/30 09:07:39;;;;;;;;;;;3.20;99.90;;;;;;5090506;28;19930;-87
2020/12/30 09:10:06;;;;;;;;;;;3.30;99.90;;;;;;5105381;28;20276;-87
2020/12/30 09:12:32;;;;;;;;;;;3.30;99.90;;;;;;5084548;28;19929;-87
2020/12/30 09:14:57;;;;;;;;;;;3.40;99.90;;;;;;5089882;28;19908;-87
2020/12/30 09:17:23;;;;;;;;;;;3.50;99.90;;;;;;5089445;28;19912;-88
2020/12/30 09:19:49;;;;;;;;;;;3.50;99.90;;;;;;5087316;28;19908;-87
2020/12/30 09:22:14;;;;;;;;;;;3.60;99.90;;;;;;5089656;28;19923;-87
2020/12/30 09:24:41;;;;;;;;;;;3.70;99.90;;;;;;5085176;28;19916;-86
2020/12/30 09:27:14;;;;;;;;;;;3.80;99.90;;;;;;5085110;28;20362;-87
2020/12/30 09:29:39;;;;;;;;;;;3.80;99.90;;;;;;5079894;28;19920;-87
2020/12/30 09:32:05;;;;;;;;;;;3.80;99.90;;;;;;5077393;28;19912;-86
2020/12/30 09:34:30;;;;;;;;;;;3.90;99.90;;;;;;5190410;22;19981;-85
2020/12/30 09:36:57;;;;;;;;;;;3.90;99.90;;;;;;5056802;28;20150;-88
2020/12/30 09:39:23;;;;;;;;;;;4.00;99.90;;;;;;5056997;28;19991;-87
2020/12/30 09:41:48;;;;;;;;;;;4.00;99.90;;;;;;5055512;28;20434;-88
2020/12/30 09:44:14;;;;;;;;;;;4.00;99.90;;;;;;5056724;28;19978;-87
2020/12/30 09:46:51;;;;;;;;;;;4.10;99.90;;;;;;5056658;28;19954;-87
2020/12/30 09:49:17;;;;;;;;;;;4.10;99.90;;;;;;5056825;28;20059;-87
2020/12/30 09:51:43;;;;;;;;;;;4.10;99.90;;;;;;5056437;28;19995;-88
2020/12/30 09:54:08;;;;;;;;;;;4.20;99.90;;;;;;5056837;28;20359;-87
2020/12/30 09:56:34;;;;;;;;;;;4.30;99.90;;;;;;5056655;28;19967;-88
2020/12/30 09:59:02;;;;;;;;;;;4.30;99.90;;;;;;5056864;28;19908;-89
2020/12/30 10:01:29;;;;;;;;;;;4.30;99.90;;;;;;5056747;28;19917;-87
2020/12/30 10:03:57;;;;;;;;;;;4.30;99.90;;;;;;5056399;28;19908;-87
2020/12/30 10:08:59;;;;;;;;;;;4.20;99.90;;;;;;5112763;28;19923;-88
2020/12/30 10:11:27;;;;;;;;;;;4.30;99.90;;;;;;5096696;28;19912;-86
2020/12/30 10:13:52;;;;;;;;;;;4.30;99.90;;;;;;5096924;28;19914;-86
2020/12/30 10:16:20;;;;;;;;;;;4.30;99.90;;;;;;5096760;28;20249;-87
2020/12/30 10:18:46;;;;;;;;;;;4.30;99.90;;;;;;5096958;28;19965;-85
2020/12/30 10:21:11;;;;;;;;;;;4.30;99.90;;;;;;5096538;28;20378;-85
2020/12/30 10:23:39;;;;;;;;;;;4.30;99.90;;;;;;5096677;28;19951;-88
2020/12/30 10:26:06;;;;;;;;;;;4.30;99.90;;;;;;5096400;28;19973;-86
2020/12/30 10:28:34;;;;;;;;;;;4.30;99.90;;;;;;5096479;28;19915;-86
2020/12/30 10:30:59;;;;;;;;;;;4.40;99.90;;;;;;5096543;28;19908;-86
2020/12/30 10:33:25;;;;;;;;;;;4.40;99.90;;;;;;5096181;28;19908;-86
2020/12/30 10:35:50;;;;;;;;;;;4.50;99.90;;;;;;5096294;28;19912;-86
2020/12/30 10:38:16;;;;;;;;;;;4.50;99.90;;;;;;5096099;28;19921;-87
2020/12/30 10:40:44;;;;;;;;;;;4.50;99.90;;;;;;5097135;28;19908;-86
2020/12/30 10:43:09;;;;;;;;;;;4.50;99.90;;;;;;5095967;28;19926;-86
2020/12/30 10:45:35;;;;;;;;;;;4.50;99.90;;;;;;5096131;28;20368;-86
2020/12/30 10:48:03;;;;;;;;;;;4.50;99.90;;;;;;5096155;28;20470;-86
2020/12/30 10:50:32;;;;;;;;;;;4.50;99.90;;;;;;5095843;28;19907;-87
2020/12/30 10:52:58;;;;;;;;;;;4.60;99.90;;;;;;5095875;28;19908;-93
2020/12/30 10:55:25;;;;;;;;;;;4.70;99.90;;;;;;5096107;28;19953;-86
2020/12/30 10:57:51;;;;;;;;;;;4.70;99.90;;;;;;5078272;28;19923;-86
2020/12/30 11:00:16;;;;;;;;;;;4.70;99.90;;;;;;5077567;28;19908;-86
2020/12/30 11:02:42;;;;;;;;;;;4.70;99.90;;;;;;5075477;28;19916;-86
2020/12/30 11:05:12;;;;;;;;;;;4.70;99.90;;;;;;5075611;28;20007;-86
2020/12/30 11:07:40;;;;;;;;;;;4.80;99.90;;;;;;5075139;28;19920;-86
2020/12/30 11:10:06;;;;;;;;;;;4.80;99.90;;;;;;5075561;28;19908;-85
2020/12/30 11:12:36;;;;;;;;;;;4.90;99.90;;;;;;5075720;28;19914;-86
2020/12/30 11:15:06;;;;;;;;;;;4.90;99.90;;;;;;5075247;28;19912;-86
2020/12/30 11:17:32;;;;;;;;;;;4.90;99.90;;;;;;5075092;28;20321;-92
2020/12/30 11:19:57;;;;;;;;;;;4.90;99.90;;;;;;5075209;28;19908;-87
2020/12/30 11:22:26;;;;;;;;;;;5.00;99.90;;;;;;5075270;28;19969;-87
2020/12/30 11:24:52;;;;;;;;;;;5.00;99.90;;;;;;5074997;28;19908;-87
2020/12/30 11:27:17;;;;;;;;;;;5.10;99.90;;;;;;5095214;28;19908;-92
2020/12/30 11:29:43;;;;;;;;;;;5.10;99.90;;;;;;5085000;28;20263;-93
2020/12/30 11:32:08;;;;;;;;;;;5.30;99.90;;;;;;5078651;28;19940;-92
2020/12/30 11:34:34;;;;;;;;;;;5.30;99.90;;;;;;5075048;28;19915;-93
2020/12/30 11:37:00;;;;;;;;;;;5.30;99.90;;;;;;5077704;28;19965;-93
2020/12/30 11:39:25;;;;;;;;;;;5.30;99.90;;;;;;5190946;22;21381;-83
2020/12/30 12:07:04;;;;;;;;;;;5.60;99.90;;;;;;5610026;22;19950;-88
2020/12/30 12:12:21;;;;;;;;;;;5.60;99.90;;;;;;6075725;22;19923;-84
2020/12/30 12:20:45;;;;;;;;;;;5.70;99.90;;;;;;4639662;22;20213;31
2020/12/30 12:23:11;;;;;;;;;;;5.70;99.90;;;;;;5009070;28;19926;-86
2020/12/30 12:30:59;;;;;;;;;;;5.70;99.90;;;;;;5281830;22;19924;-85
2020/12/30 12:33:27;;;;;;;;;;;5.70;99.90;;;;;;5074197;28;19912;-85
2020/12/30 12:35:52;;;;;;;;;;;5.70;99.90;;;;;;5189330;22;20040;-90
2020/12/30 12:38:18;;;;;;;;;;;5.70;99.90;;;;;;5096125;28;19912;-90
2020/12/30 12:40:43;;;;;;;;;;;5.70;99.90;;;;;;5096514;28;20011;-89
2020/12/30 12:43:09;;;;;;;;;;;5.70;99.90;;;;;;5097054;28;20007;-91
2020/12/30 12:45:35;;;;;;;;;;;5.80;99.90;;;;;;5096941;28;20354;-91
2020/12/30 12:48:01;;;;;;;;;;;5.80;99.90;;;;;;5096754;28;19907;-90
2020/12/30 12:50:27;;;;;;;;;;;5.80;99.90;;;;;;5096371;28;19953;-89
2020/12/30 12:52:52;;;;;;;;;;;5.80;99.90;;;;;;5096688;28;19957;-89
2020/12/30 12:55:18;;;;;;;;;;;5.80;99.90;;;;;;5096752;28;19908;-90
2020/12/30 12:57:43;;;;;;;;;;;5.80;99.90;;;;;;5096968;28;20436;-90
2020/12/30 13:00:09;;;;;;;;;;;5.80;99.90;;;;;;5097057;28;19919;-88
2020/12/30 13:02:37;;;;;;;;;;;5.90;99.90;;;;;;5096560;28;19915;-89
2020/12/30 13:05:02;;;;;;;;;;;5.80;99.90;;;;;;5096606;28;20400;-90
2020/12/30 13:07:28;;;;;;;;;;;5.80;99.90;;;;;;5096373;28;20051;-89
2020/12/30 13:09:53;;;;;;;;;;;5.80;99.90;;;;;;5096559;28;19934;-90
2020/12/30 13:12:19;;;;;;;;;;;5.70;99.90;;;;;;5096622;28;19970;-89
2020/12/30 13:14:45;;;;;;;;;;;5.70;99.90;;;;;;5096477;28;19976;-90
2020/12/30 13:17:10;;;;;;;;;;;5.70;99.90;;;;;;5100349;28;19915;-89
2020/12/30 13:19:36;;;;;;;;;;;5.70;99.90;;;;;;5100454;28;19914;-89
2020/12/30 13:22:01;;;;;;;;;;;5.70;99.90;;;;;;5099982;28;19916;-90
2020/12/30 13:24:27;;;;;;;;;;;5.70;99.90;;;;;;5100226;28;19930;-90
2020/12/30 13:26:52;;;;;;;;;;;5.70;99.90;;;;;;5100455;28;19953;-89
2020/12/30 13:29:18;;;;;;;;;;;5.70;99.90;;;;;;5100101;28;19915;-89
2020/12/30 13:31:48;;;;;;;;;;;5.70;99.90;;;;;;5100174;28;19912;-90
2020/12/30 13:34:14;;;;;;;;;;;5.70;99.90;;;;;;5118105;28;19918;-88
2020/12/30 13:36:40;;;;;;;;;;;5.70;99.90;;;;;;5099642;28;19919;-88
2020/12/30 13:39:05;;;;;;;;;;;5.70;99.90;;;;;;5099741;28;19908;-89
2020/12/30 13:41:35;;;;;;;;;;;5.60;99.90;;;;;;5099990;28;19962;-91
2020/12/30 13:44:00;;;;;;;;;;;5.70;99.90;;;;;;5099903;28;19912;-89
2020/12/30 13:46:26;;;;;;;;;;;5.70;99.90;;;;;;5118019;28;20332;-88
2020/12/30 13:48:51;;;;;;;;;;;5.70;99.90;;;;;;5099634;28;20347;-87
2020/12/30 13:51:18;;;;;;;;;;;5.60;99.90;;;;;;5099560;28;19914;-89
2020/12/30 13:53:43;;;;;;;;;;;5.60;99.90;;;;;;5239763;22;19924;-86
2020/12/30 13:56:09;;;;;;;;;;;5.60;99.90;;;;;;5076819;28;19965;-86
2020/12/30 13:58:34;;;;;;;;;;;5.60;99.90;;;;;;5076822;28;20208;-86
2020/12/30 14:01:00;;;;;;;;;;;5.60;99.90;;;;;;5076663;28;19948;-86
2020/12/30 14:03:25;;;;;;;;;;;5.70;99.90;;;;;;5076389;28;19916;-86
2020/12/30 14:05:58;;;;;;;;;;;5.60;99.90;;;;;;5076575;28;19908;-86
2020/12/30 14:08:24;;;;;;;;;;;5.60;99.90;;;;;;5076458;28;20081;-86
2020/12/30 14:10:52;;;;;;;;;;;5.60;99.90;;;;;;5076367;28;20382;-86
2020/12/30 14:13:17;;;;;;;;;;;5.70;99.90;;;;;;5076584;28;19920;-87
2020/12/30 14:15:48;;;;;;;;;;;5.60;99.90;;;;;;5076244;28;19914;-86
2020/12/30 14:18:13;;;;;;;;;;;5.70;99.90;;;;;;5076541;28;19908;-86
2020/12/30 14:20:41;;;;;;;;;;;5.70;99.90;;;;;;5076547;28;20472;-86
2020/12/30 14:23:09;;;;;;;;;;;5.70;99.90;;;;;;5094102;28;20321;-86
2020/12/30 14:25:35;;;;;;;;;;;5.70;99.90;;;;;;5094243;28;19915;-86
2020/12/30 14:28:02;;;;;;;;;;;5.60;99.90;;;;;;5345126;22;19964;-79
2020/12/30 14:30:27;;;;;;;;;;;5.60;99.90;;;;;;5172677;22;19986;-87
2020/12/30 14:32:53;;;;;;;;;;;5.50;99.90;;;;;;5053879;28;19908;-87
2020/12/30 14:35:19;;;;;;;;;;;5.50;99.90;;;;;;5184009;22;19959;-86
2020/12/30 14:37:45;;;;;;;;;;;5.50;99.90;;;;;;5095874;28;20003;-86
2020/12/30 14:40:11;;;;;;;;;;;5.50;99.90;;;;;;5096131;28;19916;-86
2020/12/30 14:42:37;;;;;;;;;;;5.40;99.90;;;;;;5095946;28;20323;-86
2020/12/30 14:45:03;;;;;;;;;;;5.40;99.90;;;;;;5096111;28;19919;-86
2020/12/30 14:47:28;;;;;;;;;;;5.30;99.90;;;;;;5096076;28;19983;-86
2020/12/30 14:49:54;;;;;;;;;;;5.40;99.90;;;;;;5096121;28;19969;-86
2020/12/30 14:52:22;;;;;;;;;;;5.40;99.90;;;;;;5096146;28;20345;-86
2020/12/30 14:54:47;;;;;;;;;;;5.30;99.90;;;;;;5095920;28;19908;-85
2020/12/30 14:57:15;;;;;;;;;;;5.30;99.90;;;;;;5096195;28;20377;-86
2020/12/30 14:59:43;;;;;;;;;;;5.20;99.90;;;;;;5095857;28;19908;-86
2020/12/30 15:02:09;;;;;;;;;;;5.20;99.90;;;;;;5095487;28;19916;-85
2020/12/30 15:04:34;;;;;;;;;;;5.20;99.90;;;;;;5095317;28;20015;-85
2020/12/30 15:07:00;;;;;;;;;;;5.20;99.90;;;;;;5095367;28;19912;-86
2020/12/30 15:09:28;;;;;;;;;;;5.20;99.90;;;;;;5114189;28;19907;-86
2020/12/30 15:11:53;;;;;;;;;;;5.10;99.90;;;;;;5095915;28;20367;-86
2020/12/30 15:14:19;;;;;;;;;;;5.10;99.90;;;;;;5095659;28;20011;-86
2020/12/30 15:16:47;;;;;;;;;;;5.10;99.90;;;;;;5095524;28;19911;-85